Time;durP1;ratioP1;P1;durP2;ratioP2;P2;SDS_P1;SDS_P2;PMS_P1;PMS_P2;Temp;Humidity;BMP_temperature;BMP_pressure;BME280_temperature;BME280_humidity;BME280_pressure;Samples;Min_cycle;Max_cycle;Signal;HPM_P1;HPM_P2
2024/04/07 00:02:11;;;;;;;1.33;0.40;;;24.30;51.60;;;;;;2340007;53;20933;-70
2024/04/07 00:04:39;;;;;;;1.62;0.50;;;24.30;51.40;;;;;;2579261;52;21042;-69
2024/04/07 00:07:05;;;;;;;1.80;0.50;;;24.40;51.30;;;;;;2319191;54;21416;-69
2024/04/07 00:09:32;;;;;;;1.30;0.45;;;24.40;51.20;;;;;;2340098;53;21441;-69
2024/04/07 00:12:01;;;;;;;3.03;0.60;;;24.40;50.80;;;;;;2341014;53;21485;-69
2024/04/07 00:14:40;;;;;;;1.85;0.47;;;24.50;50.70;;;;;;2340741;53;21406;-69
2024/04/07 00:17:07;;;;;;;1.20;0.40;;;24.50;49.10;;;;;;2339933;53;21025;-69
2024/04/07 00:19:34;;;;;;;0.98;0.30;;;24.50;50.70;;;;;;2340022;53;20996;-68
2024/04/07 00:22:01;;;;;;;0.95;0.32;;;24.60;50.80;;;;;;2339822;53;21017;-70
2024/04/07 00:24:27;;;;;;;2.80;0.60;;;24.60;51.00;;;;;;2339455;53;20924;-71
2024/04/07 00:26:56;;;;;;;2.03;0.40;;;24.60;50.70;;;;;;2339968;53;21328;-69
2024/04/07 00:29:23;;;;;;;1.30;0.40;;;24.70;50.70;;;;;;2339406;53;20937;-71
2024/04/07 00:31:49;;;;;;;1.37;0.50;;;24.70;50.80;;;;;;2337029;53;21525;-71
2024/04/07 00:34:15;;;;;;;1.85;0.30;;;24.70;50.70;;;;;;2339523;53;21317;-68
2024/04/07 00:36:42;;;;;;;1.58;0.50;;;24.80;50.60;;;;;;2339791;53;21068;-69
2024/04/07 00:39:09;;;;;;;3.83;0.50;;;24.80;50.70;;;;;;2340376;53;20944;-69
2024/04/07 00:41:36;;;;;;;1.87;0.55;;;24.80;50.40;;;;;;2339319;53;20965;-69
2024/04/07 00:44:04;;;;;;;1.60;0.35;;;24.80;50.70;;;;;;2340131;53;21036;-69
2024/04/07 00:46:31;;;;;;;2.17;0.37;;;24.80;50.80;;;;;;2339135;53;20989;-69
2024/04/07 00:48:57;;;;;;;1.87;0.52;;;24.80;50.60;;;;;;2339731;53;21322;-69
2024/04/07 00:51:23;;;;;;;1.00;0.43;;;24.80;50.70;;;;;;2338694;53;21012;-69
2024/04/07 00:53:50;;;;;;;1.23;0.40;;;24.80;50.90;;;;;;2339927;53;20977;-70
2024/04/07 00:56:16;;;;;;;3.25;0.73;;;24.80;50.90;;;;;;2340055;53;20964;-70
2024/04/07 00:58:42;;;;;;;0.65;0.30;;;24.80;50.90;;;;;;2339538;53;20952;-70
2024/04/07 01:01:08;;;;;;;1.87;0.70;;;24.80;51.20;;;;;;2340398;53;21541;-69
2024/04/07 01:03:35;;;;;;;1.62;0.30;;;24.80;51.00;;;;;;2340046;53;21019;-69
2024/04/07 01:06:01;;;;;;;1.25;0.40;;;24.80;50.80;;;;;;2340128;53;20961;-69
2024/04/07 01:08:27;;;;;;;1.00;0.50;;;24.70;50.80;;;;;;2339856;53;20933;-69
2024/04/07 01:10:54;;;;;;;1.25;0.40;;;24.70;50.90;;;;;;2340350;53;20938;-70
2024/04/07 01:13:25;;;;;;;2.03;0.70;;;24.70;51.00;;;;;;2339818;53;21005;-69
2024/04/07 01:15:51;;;;;;;2.67;0.60;;;24.70;50.90;;;;;;2340487;53;20972;-69
2024/04/07 01:18:19;;;;;;;1.10;0.45;;;24.60;51.20;;;;;;2339480;53;20941;-69
2024/04/07 01:20:48;;;;;;;3.15;0.40;;;24.60;51.40;;;;;;2340163;53;20929;-69
2024/04/07 01:23:19;;;;;;;2.80;0.70;;;24.60;51.60;;;;;;2340126;53;21431;-70
2024/04/07 01:25:45;;;;;;;3.05;0.70;;;24.60;51.40;;;;;;2324081;54;21427;-70
2024/04/07 01:28:13;;;;;;;2.40;0.50;;;24.50;51.50;;;;;;2331450;53;21315;-68
2024/04/07 01:30:39;;;;;;;1.23;0.25;;;24.50;51.60;;;;;;2339530;53;21009;-69
2024/04/07 01:33:06;;;;;;;0.80;0.32;;;24.40;51.20;;;;;;2340959;53;21025;-69
2024/04/07 01:35:32;;;;;;;0.75;0.30;;;24.40;51.80;;;;;;2335739;53;20985;-69
2024/04/07 01:38:01;;;;;;;2.45;0.30;;;24.40;51.90;;;;;;2322389;53;20962;-69
2024/04/07 01:40:27;;;;;;;1.15;0.40;;;24.30;51.90;;;;;;2339524;53;21005;-68
2024/04/07 01:42:54;;;;;;;1.42;0.47;;;24.30;51.90;;;;;;2339979;53;21416;-69
2024/04/07 01:45:20;;;;;;;1.33;0.50;;;24.30;52.20;;;;;;2339793;53;21006;-69
2024/04/07 01:47:53;;;;;;;0.95;0.28;;;24.20;52.30;;;;;;2340151;53;20930;-69
2024/04/07 01:50:21;;;;;;;1.37;0.30;;;24.20;51.90;;;;;;2307619;54;20936;-70
2024/04/07 01:52:47;;;;;;;1.25;0.30;;;24.10;52.40;;;;;;2307948;54;20967;-69
2024/04/07 01:55:15;;;;;;;1.25;0.55;;;24.10;52.40;;;;;;2307827;54;21030;-69
2024/04/07 01:57:41;;;;;;;1.40;0.40;;;24.00;52.30;;;;;;2308046;54;21338;-68
2024/04/07 02:00:10;;;;;;;2.03;0.45;;;23.90;52.20;;;;;;2308279;54;21274;-69
2024/04/07 02:02:37;;;;;;;1.35;0.52;;;23.90;52.20;;;;;;2308233;54;20959;-69
2024/04/07 02:05:05;;;;;;;1.70;0.40;;;23.80;52.30;;;;;;2321479;54;20960;-69
2024/04/07 02:07:32;;;;;;;2.40;0.50;;;23.70;52.30;;;;;;2307819;54;20935;-71
2024/04/07 02:09:59;;;;;;;2.60;0.68;;;23.60;52.10;;;;;;2308375;53;21504;-69
2024/04/07 02:12:25;;;;;;;2.70;0.90;;;23.60;51.90;;;;;;2307519;54;21421;-70
2024/04/07 02:14:52;;;;;;;1.80;0.70;;;23.50;51.80;;;;;;2308133;54;20903;-69
2024/04/07 02:17:18;;;;;;;2.72;0.68;;;23.30;51.80;;;;;;2308210;54;20900;-69
2024/04/07 02:19:46;;;;;;;2.05;0.75;;;23.30;51.90;;;;;;2307881;54;21009;-69
2024/04/07 02:22:12;;;;;;;2.00;0.82;;;23.20;51.90;;;;;;2308325;54;20971;-69
2024/04/07 02:24:39;;;;;;;2.17;0.75;;;23.10;51.90;;;;;;2307383;54;20935;-70
2024/04/07 02:27:05;;;;;;;1.85;0.80;;;22.90;52.20;;;;;;2307903;54;21911;-68
2024/04/07 02:29:33;;;;;;;2.20;0.80;;;22.80;51.70;;;;;;2308050;54;21306;-69
2024/04/07 02:31:59;;;;;;;1.75;0.50;;;22.70;51.80;;;;;;2308053;54;20927;-71
2024/04/07 02:34:25;;;;;;;1.90;0.65;;;22.60;51.90;;;;;;2308033;54;21012;-68
2024/04/07 02:36:52;;;;;;;2.15;0.70;;;22.50;52.00;;;;;;2308756;54;21175;-69
2024/04/07 02:39:21;;;;;;;2.20;0.80;;;22.40;52.10;;;;;;2312557;54;21013;-70
2024/04/07 02:41:47;;;;;;;2.17;0.75;;;22.30;52.00;;;;;;2316230;54;21384;-68
2024/04/07 02:44:15;;;;;;;3.05;1.10;;;22.20;52.30;;;;;;2307970;54;21030;-68
2024/04/07 02:49:27;;;;;;;2.33;0.77;;;22.00;52.50;;;;;;2307929;54;21000;-68
2024/04/07 02:51:54;;;;;;;2.80;0.80;;;21.90;52.70;;;;;;2308156;54;21477;-68
2024/04/07 02:54:20;;;;;;;3.03;0.73;;;21.90;52.80;;;;;;2308095;53;21728;-68
2024/04/07 02:56:47;;;;;;;2.08;0.65;;;21.80;52.90;;;;;;2308958;54;20969;-69
2024/04/07 02:59:13;;;;;;;2.00;0.70;;;21.70;52.90;;;;;;2310498;54;21060;-69
2024/04/07 03:01:40;;;;;;;2.47;0.80;;;21.60;53.00;;;;;;2283485;55;20983;-67
2024/04/07 03:04:08;;;;;;;2.62;0.90;;;21.60;53.10;;;;;;2307823;54;21517;-68
2024/04/07 03:06:36;;;;;;;2.17;0.70;;;21.50;53.10;;;;;;2328916;53;21300;-68
2024/04/07 03:09:03;;;;;;;1.15;0.47;;;21.40;53.20;;;;;;2340317;53;21021;-68
2024/04/07 03:11:30;;;;;;;3.17;0.80;;;21.30;53.30;;;;;;2339999;53;20969;-67
2024/04/07 03:13:56;;;;;;;1.92;0.73;;;21.20;53.20;;;;;;2339712;53;21036;-68
2024/04/07 03:16:22;;;;;;;3.45;0.88;;;21.10;53.20;;;;;;2339794;53;20984;-69
2024/04/07 03:18:49;;;;;;;3.08;1.15;;;21.10;53.40;;;;;;2340622;53;20997;-70
2024/04/07 03:21:15;;;;;;;3.75;1.10;;;21.00;53.50;;;;;;2327063;53;21510;-68
2024/04/07 03:23:41;;;;;;;4.80;1.10;;;20.90;53.60;;;;;;2328858;53;21189;-68
2024/04/07 03:26:08;;;;;;;4.18;1.55;;;20.80;53.60;;;;;;2340007;53;21110;-68
2024/04/07 03:28:34;;;;;;;4.97;1.10;;;20.80;53.70;;;;;;2339194;53;21008;-68
2024/04/07 03:31:03;;;;;;;2.75;0.85;;;20.70;53.80;;;;;;2339203;53;20961;-69
2024/04/07 03:33:31;;;;;;;2.28;0.93;;;20.50;53.80;;;;;;2329000;53;20941;-68
2024/04/07 03:36:06;;;;;;;2.60;1.05;;;20.60;54.10;;;;;;2325287;53;20985;-67
2024/04/07 03:38:34;;;;;;;2.75;1.00;;;20.50;53.80;;;;;;2311030;55;20966;-68
2024/04/07 03:41:03;;;;;;;4.45;1.35;;;20.40;54.10;;;;;;2331231;54;20932;-68
2024/04/07 03:43:30;;;;;;;2.62;0.98;;;20.40;54.10;;;;;;2334576;54;20937;-68
2024/04/07 03:46:05;;;;;;;4.28;1.10;;;20.40;54.30;;;;;;2334704;54;20949;-68
2024/04/07 03:48:33;;;;;;;3.30;1.20;;;20.30;54.00;;;;;;2334788;54;21001;-68
2024/04/07 03:51:00;;;;;;;3.08;1.25;;;20.20;54.50;;;;;;2334799;54;21062;-68
2024/04/07 03:53:27;;;;;;;3.72;1.83;;;20.10;54.50;;;;;;2334872;54;21087;-67
2024/04/07 03:55:53;;;;;;;4.78;2.00;;;20.10;54.60;;;;;;2327303;54;21020;-68
2024/04/07 03:58:19;;;;;;;3.85;1.70;;;20.00;54.70;;;;;;2332567;54;20999;-67
2024/04/07 04:00:46;;;;;;;4.85;1.70;;;20.00;54.90;;;;;;2317286;55;20968;-68
2024/04/07 04:03:12;;;;;;;3.85;1.70;;;19.90;54.80;;;;;;2333113;53;21438;-69
2024/04/07 04:05:38;;;;;;;3.70;1.40;;;19.90;54.90;;;;;;2334704;54;20988;-68
2024/04/07 04:08:05;;;;;;;3.25;1.30;;;19.80;55.00;;;;;;2335104;54;21876;-70
2024/04/07 04:10:31;;;;;;;3.62;1.12;;;19.70;54.80;;;;;;2335019;54;20949;-68
2024/04/07 04:12:57;;;;;;;3.35;1.15;;;19.80;55.00;;;;;;2334967;54;21339;-68
2024/04/07 04:15:26;;;;;;;3.70;1.10;;;19.60;54.90;;;;;;2334821;54;21548;-68
2024/04/07 04:17:52;;;;;;;2.47;0.90;;;19.70;54.90;;;;;;2335309;54;21014;-67
2024/04/07 04:20:20;;;;;;;3.78;1.15;;;19.50;55.00;;;;;;2335608;54;20925;-68
2024/04/07 04:22:49;;;;;;;3.15;1.05;;;19.40;55.00;;;;;;2335419;54;20968;-68
2024/04/07 04:25:17;;;;;;;3.10;1.20;;;19.30;55.00;;;;;;2334991;54;20954;-68
2024/04/07 04:27:43;;;;;;;2.65;1.08;;;19.30;55.10;;;;;;2335184;54;20950;-67
2024/04/07 04:30:12;;;;;;;3.08;1.10;;;19.20;55.00;;;;;;2334755;54;20933;-68
2024/04/07 04:32:38;;;;;;;3.50;1.00;;;19.20;55.10;;;;;;2335039;54;21037;-68
2024/04/07 04:35:10;;;;;;;3.40;0.82;;;19.10;55.10;;;;;;2335480;54;20969;-70
2024/04/07 04:37:36;;;;;;;2.80;0.90;;;19.00;55.20;;;;;;2335678;54;20941;-68
2024/04/07 04:40:05;;;;;;;1.35;0.55;;;19.00;55.20;;;;;;2335303;54;20984;-68
2024/04/07 04:42:32;;;;;;;2.22;0.80;;;18.90;55.30;;;;;;2337404;53;20909;-68
2024/04/07 04:44:58;;;;;;;3.22;1.10;;;18.90;55.50;;;;;;2335980;54;21060;-69
2024/04/07 04:47:27;;;;;;;4.85;1.00;;;18.90;55.60;;;;;;2335317;54;20949;-68
2024/04/07 04:49:54;;;;;;;2.33;1.00;;;18.80;55.40;;;;;;2335603;54;20937;-68
2024/04/07 04:52:20;;;;;;;4.85;1.02;;;18.80;55.60;;;;;;2334993;54;20953;-70
2024/04/07 04:54:47;;;;;;;3.92;1.33;;;18.80;55.70;;;;;;2334757;54;20953;-68
2024/04/07 04:57:13;;;;;;;3.65;1.45;;;18.70;55.70;;;;;;2329225;54;21012;-68
2024/04/07 04:59:39;;;;;;;4.03;1.30;;;18.70;55.80;;;;;;2332298;54;21134;-68
2024/04/07 05:02:06;;;;;;;4.60;1.40;;;18.60;55.70;;;;;;2335002;54;21000;-68
2024/04/07 05:04:35;;;;;;;3.37;1.10;;;18.60;55.70;;;;;;2334915;54;21008;-69
2024/04/07 05:07:04;;;;;;;3.25;0.90;;;18.60;55.70;;;;;;2334811;54;21132;-68
2024/04/07 05:09:31;;;;;;;3.75;1.10;;;18.50;55.90;;;;;;2334322;54;21394;-68
2024/04/07 05:11:57;;;;;;;3.85;1.00;;;18.50;55.90;;;;;;2338165;54;20941;-70
2024/04/07 05:14:24;;;;;;;2.45;1.02;;;18.50;56.00;;;;;;2312317;54;21029;-68
2024/04/07 05:16:51;;;;;;;2.00;0.80;;;18.50;56.20;;;;;;2333109;54;20973;-67
2024/04/07 05:19:18;;;;;;;3.58;1.17;;;18.50;56.20;;;;;;2334507;54;21375;-68
2024/04/07 05:21:44;;;;;;;2.78;1.25;;;18.50;56.20;;;;;;2333523;54;20957;-69
2024/04/07 05:24:11;;;;;;;2.92;1.25;;;18.40;56.20;;;;;;2335249;54;21021;-70
2024/04/07 05:26:37;;;;;;;2.28;1.00;;;18.40;56.30;;;;;;2334819;54;21011;-69
2024/04/07 05:29:04;;;;;;;2.47;1.12;;;18.40;56.40;;;;;;2335019;54;20933;-68
2024/04/07 05:31:31;;;;;;;2.60;1.00;;;18.40;56.40;;;;;;2335373;54;20945;-68
2024/04/07 05:33:58;;;;;;;2.83;1.30;;;18.30;56.40;;;;;;2334852;54;21331;-67
2024/04/07 05:36:26;;;;;;;4.95;1.25;;;18.30;56.50;;;;;;2335040;54;20973;-67
2024/04/07 05:38:52;;;;;;;3.12;0.85;;;18.30;56.60;;;;;;2324704;54;21044;-68
2024/04/07 05:41:19;;;;;;;2.70;1.05;;;18.30;56.60;;;;;;2322508;54;21145;-68
2024/04/07 05:43:45;;;;;;;3.55;0.90;;;18.30;56.70;;;;;;2335173;54;21001;-67
2024/04/07 05:46:15;;;;;;;2.08;0.85;;;18.30;56.80;;;;;;2335336;54;20953;-68
2024/04/07 05:48:41;;;;;;;3.12;0.77;;;18.30;56.80;;;;;;2335081;54;21009;-69
2024/04/07 05:51:14;;;;;;;3.90;1.00;;;18.20;56.80;;;;;;2334708;53;20985;-67
2024/04/07 05:53:40;;;;;;;;;;;18.30;56.80;;;;;;2338660;54;21263;-70
2024/04/07 05:56:13;;;;;;;2.65;0.90;;;18.30;56.20;;;;;;2335443;54;20379;-68
2024/04/07 05:58:45;;;;;;;4.07;1.20;;;18.30;57.10;;;;;;2335199;54;21457;-69
2024/04/07 06:01:11;;;;;;;;;;;18.20;57.20;;;;;;2330674;54;21039;-70
2024/04/07 06:03:39;;;;;;;1.90;0.70;;;18.20;56.30;;;;;;2333921;54;20153;-67
2024/04/07 06:06:05;;;;;;;2.55;0.95;;;18.20;57.40;;;;;;2335280;54;21485;-69
2024/04/07 06:08:31;;;;;;;2.42;1.05;;;18.20;57.50;;;;;;2329085;54;20991;-69
2024/04/07 06:11:02;;;;;;;2.20;0.80;;;18.20;57.50;;;;;;2314964;54;21039;-68
2024/04/07 06:13:29;;;;;;;2.12;0.90;;;18.20;57.50;;;;;;2330843;54;20945;-68
2024/04/07 06:15:55;;;;;;;2.83;1.10;;;18.20;57.70;;;;;;2335376;54;21017;-69
2024/04/07 06:18:21;;;;;;;2.50;1.02;;;18.20;57.70;;;;;;2334898;54;21252;-67
2024/04/07 06:20:48;;;;;;;2.55;1.10;;;18.20;57.80;;;;;;2335036;54;21021;-67
2024/04/07 06:23:17;;;;;;;5.75;0.90;;;18.20;57.80;;;;;;2308268;54;20952;-68
2024/04/07 06:25:46;;;;;;;4.70;1.30;;;18.20;57.80;;;;;;2313999;54;21057;-68
2024/04/07 06:28:13;;;;;;;2.53;1.00;;;18.20;57.90;;;;;;2311025;54;21026;-68
2024/04/07 06:30:39;;;;;;;3.12;0.98;;;18.30;58.10;;;;;;2291835;55;21132;-68
2024/04/07 06:33:06;;;;;;;3.20;0.90;;;18.30;58.30;;;;;;2312299;54;20957;-68
2024/04/07 06:35:33;;;;;;;2.92;0.85;;;18.30;58.30;;;;;;2307680;54;21042;-68
2024/04/07 06:38:00;;;;;;;1.95;0.80;;;18.30;58.40;;;;;;2308457;54;21468;-67
2024/04/07 06:40:30;;;;;;;3.00;0.88;;;18.40;58.50;;;;;;2307846;54;21711;-67
2024/04/07 06:42:56;;;;;;;2.12;0.82;;;18.40;58.60;;;;;;2308448;54;21607;-68
2024/04/07 06:45:22;;;;;;;2.55;1.00;;;18.40;58.60;;;;;;2308543;54;20951;-68
2024/04/07 06:47:49;;;;;;;4.40;1.00;;;18.50;58.70;;;;;;2308123;54;21022;-67
2024/04/07 06:50:15;;;;;;;3.60;1.10;;;18.50;58.90;;;;;;2311812;54;21016;-68
2024/04/07 06:52:42;;;;;;;2.55;0.82;;;18.60;59.10;;;;;;2309023;54;20972;-68
2024/04/07 06:55:12;;;;;;;2.75;1.00;;;18.70;59.30;;;;;;2308928;54;21338;-68
2024/04/07 06:57:41;;;;;;;3.12;0.98;;;18.70;59.40;;;;;;2309082;54;21262;-68
2024/04/07 07:00:08;;;;;;;3.10;0.85;;;18.80;59.50;;;;;;2308960;54;20927;-69
2024/04/07 07:02:35;;;;;;;3.58;1.00;;;18.90;59.70;;;;;;2308330;54;20920;-68
2024/04/07 07:05:06;;;;;;;4.78;1.75;;;19.00;59.80;;;;;;2311358;54;21314;-70
2024/04/07 07:07:32;;;;;;;5.85;1.40;;;19.10;59.90;;;;;;2311526;54;21347;-67
2024/04/07 07:09:59;;;;;;;5.28;1.10;;;19.20;60.00;;;;;;2308876;54;20983;-68
2024/04/07 07:12:25;;;;;;;6.40;1.60;;;19.30;60.10;;;;;;2308387;54;21461;-68
2024/04/07 07:14:52;;;;;;;2.30;1.00;;;19.40;60.20;;;;;;2308760;54;20983;-68
2024/04/07 07:17:19;;;;;;;3.35;1.17;;;19.50;60.30;;;;;;2309129;54;20924;-68
2024/04/07 07:19:46;;;;;;;4.82;1.42;;;19.60;60.40;;;;;;2321095;54;20936;-68
2024/04/07 07:22:13;;;;;;;2.60;0.90;;;19.70;60.40;;;;;;2309193;54;20951;-68
2024/04/07 07:24:41;;;;;;;4.97;1.10;;;19.80;60.60;;;;;;2308400;54;20983;-68
2024/04/07 07:27:07;;;;;;;4.15;1.08;;;19.90;60.50;;;;;;2308796;54;21043;-68
2024/04/07 07:29:34;;;;;;;2.42;1.00;;;20.10;60.70;;;;;;2323355;54;20928;-68
2024/04/07 07:32:01;;;;;;;2.20;0.90;;;20.20;60.70;;;;;;2313900;54;20976;-68
2024/04/07 07:34:28;;;;;;;1.90;0.80;;;20.30;60.90;;;;;;2308486;54;20987;-68
2024/04/07 07:36:56;;;;;;;2.50;0.98;;;20.40;60.90;;;;;;2308471;54;20971;-70
2024/04/07 07:39:24;;;;;;;3.20;0.85;;;20.50;60.90;;;;;;2308317;54;21417;-69
2024/04/07 07:41:56;;;;;;;2.55;1.15;;;20.60;61.00;;;;;;2308872;54;20999;-70
2024/04/07 07:44:22;;;;;;;2.55;0.93;;;20.70;61.20;;;;;;2313355;54;21024;-69
2024/04/07 07:46:48;;;;;;;3.95;0.73;;;20.80;61.40;;;;;;2300433;54;21037;-68
2024/04/07 07:49:15;;;;;;;1.87;0.60;;;20.90;61.50;;;;;;2298626;54;21450;-71
2024/04/07 07:51:42;;;;;;;2.97;0.70;;;20.90;61.40;;;;;;2308543;54;21027;-67
2024/04/07 07:54:08;;;;;;;2.33;0.90;;;21.10;61.40;;;;;;2308694;54;21075;-69
2024/04/07 07:56:34;;;;;;;4.18;1.20;;;21.10;61.00;;;;;;2308097;54;21264;-68
2024/04/07 07:59:01;;;;;;;3.65;0.90;;;21.20;60.90;;;;;;2304263;54;21012;-69
2024/04/07 08:01:27;;;;;;;2.03;0.70;;;21.30;60.80;;;;;;2326827;53;21382;-71
2024/04/07 08:03:53;;;;;;;2.53;0.80;;;21.40;60.60;;;;;;2316995;54;20992;-70
2024/04/07 08:06:19;;;;;;;2.92;1.00;;;21.50;60.60;;;;;;2339912;53;21483;-72
2024/04/07 08:08:46;;;;;;;2.87;0.82;;;21.60;60.70;;;;;;2340330;53;20949;-70
2024/04/07 08:11:13;;;;;;;2.42;0.85;;;21.70;60.80;;;;;;2339940;53;20984;-68
2024/04/07 08:13:39;;;;;;;2.83;1.00;;;21.80;60.60;;;;;;2325298;53;20941;-70
2024/04/07 08:16:07;;;;;;;4.70;0.80;;;21.90;60.40;;;;;;2317390;54;20945;-68
2024/04/07 08:18:34;;;;;;;1.80;0.70;;;21.90;60.10;;;;;;2337925;53;21000;-69
2024/04/07 08:21:00;;;;;;;3.37;0.90;;;22.00;60.20;;;;;;2340663;53;20985;-70
2024/04/07 08:23:26;;;;;;;3.25;0.80;;;22.10;60.10;;;;;;2339998;53;21158;-69
2024/04/07 08:25:56;;;;;;;3.17;0.70;;;22.20;60.00;;;;;;2342494;53;21834;-69
2024/04/07 08:28:24;;;;;;;3.50;0.80;;;22.30;59.90;;;;;;2320352;53;21828;-71
2024/04/07 08:30:50;;;;;;;4.85;0.98;;;22.40;59.80;;;;;;2338061;53;21296;-71
2024/04/07 08:33:17;;;;;;;4.00;0.80;;;22.50;59.70;;;;;;2341019;53;20961;-70
2024/04/07 08:35:45;;;;;;;2.28;0.70;;;22.60;59.70;;;;;;2315967;53;20952;-72
2024/04/07 08:38:12;;;;;;;3.22;0.77;;;22.70;59.40;;;;;;2340347;53;20996;-68
2024/04/07 08:40:42;;;;;;;2.95;0.70;;;22.70;59.50;;;;;;2340109;53;20929;-72
2024/04/07 08:43:08;;;;;;;3.80;1.00;;;22.80;59.40;;;;;;2330355;53;20957;-69
2024/04/07 08:45:38;;;;;;;2.87;0.90;;;22.90;59.40;;;;;;2326273;53;20980;-69
2024/04/07 08:48:08;;;;;;;2.58;0.85;;;23.00;59.10;;;;;;2331248;53;21675;-70
2024/04/07 08:50:34;;;;;;;4.00;0.80;;;23.10;59.40;;;;;;2326764;53;20997;-68
2024/04/07 08:53:02;;;;;;;3.40;0.90;;;23.20;59.30;;;;;;2298620;55;20913;-68
2024/04/07 08:55:30;;;;;;;2.60;0.82;;;23.30;58.90;;;;;;2318091;54;20988;-67
2024/04/07 08:57:58;;;;;;;5.37;0.75;;;23.40;58.70;;;;;;2330597;53;20925;-67
2024/04/07 09:00:28;;;;;;;2.25;0.70;;;23.40;58.70;;;;;;2327604;53;21245;-68
2024/04/07 09:02:56;;;;;;;2.20;0.65;;;23.50;59.10;;;;;;2317693;54;21511;-70
2024/04/07 09:05:24;;;;;;;3.28;0.70;;;23.60;59.10;;;;;;2341382;53;21492;-70
2024/04/07 09:07:51;;;;;;;2.20;0.60;;;23.70;59.00;;;;;;2341002;53;20936;-69
2024/04/07 09:10:18;;;;;;;3.37;0.80;;;23.80;59.10;;;;;;2341428;53;21476;-69
2024/04/07 09:12:44;;;;;;;2.35;0.60;;;23.90;59.30;;;;;;2340533;53;21632;-72
2024/04/07 09:15:12;;;;;;;1.87;0.57;;;24.00;59.20;;;;;;2321769;53;21017;-70
2024/04/07 09:17:38;;;;;;;5.43;0.70;;;24.10;59.10;;;;;;2321146;53;21080;-69
2024/04/07 09:20:17;;;;;;;4.55;0.90;;;24.20;58.90;;;;;;2337829;53;20925;-68
2024/04/07 09:22:59;;;;;;;2.67;0.73;;;24.40;58.10;;;;;;2339440;53;20933;-68
2024/04/07 09:25:29;;;;;;;2.45;0.85;;;24.50;58.80;;;;;;2340820;53;21289;-68
2024/04/07 09:27:59;;;;;;;3.45;0.90;;;24.60;58.30;;;;;;2321296;54;20986;-69
2024/04/07 09:30:27;;;;;;;2.22;0.73;;;24.70;58.10;;;;;;2316357;54;21011;-68
2024/04/07 09:32:56;;;;;;;1.98;0.70;;;24.80;58.10;;;;;;2327666;54;20928;-70
2024/04/07 09:35:22;;;;;;;3.45;0.90;;;24.80;57.80;;;;;;2316076;53;21256;-69
2024/04/07 09:37:53;;;;;;;1.92;0.65;;;24.90;57.90;;;;;;2340770;53;20980;-68
2024/04/07 09:40:23;;;;;;;1.87;0.68;;;25.00;58.00;;;;;;2328918;53;21467;-68
2024/04/07 09:42:50;;;;;;;3.70;0.90;;;25.00;57.90;;;;;;2325568;53;20954;-68
2024/04/07 09:45:19;;;;;;;3.08;0.75;;;25.00;57.90;;;;;;2319757;54;20997;-69
2024/04/07 09:47:45;;;;;;;5.65;0.90;;;25.20;57.50;;;;;;2321694;53;21422;-70
2024/04/07 09:50:37;;;;;;;3.47;0.73;;;25.30;57.70;;;;;;2341098;53;20940;-70
2024/04/07 09:53:21;;;;;;;2.47;0.98;;;25.40;56.30;;;;;;2341305;53;20969;-70
2024/04/07 09:55:50;;;;;;;5.43;1.02;;;25.50;56.00;;;;;;2340256;53;21399;-70
2024/04/07 09:58:17;;;;;;;2.85;0.85;;;25.50;56.80;;;;;;2340711;53;21367;-70
2024/04/07 10:00:43;;;;;;;3.87;0.73;;;25.60;56.90;;;;;;2342845;53;20925;-68
2024/04/07 10:03:10;;;;;;;2.30;0.60;;;25.60;56.50;;;;;;2315026;54;20928;-71
2024/04/07 10:05:37;;;;;;;5.15;1.00;;;25.70;56.60;;;;;;2340282;53;20953;-71
2024/04/07 10:08:05;;;;;;;4.55;0.93;;;25.70;56.50;;;;;;2340555;53;20957;-71
2024/04/07 10:10:31;;;;;;;3.45;0.90;;;25.70;56.10;;;;;;2340496;53;21001;-70
2024/04/07 10:13:09;;;;;;;4.47;0.88;;;25.80;56.20;;;;;;2340222;53;20945;-70
2024/04/07 10:15:36;;;;;;;2.47;0.70;;;25.90;55.60;;;;;;2323415;53;21755;-70
2024/04/07 10:19:14;;;;;;;2.45;0.73;;;26.00;56.90;;;;;;2333775;53;20961;-70
2024/04/07 10:21:46;;;;;;;2.65;0.95;;;26.10;55.70;;;;;;2335399;53;21002;-70
2024/04/07 10:24:12;;;;;;;1.73;0.60;;;26.20;57.40;;;;;;2294898;57;22021;-71
2024/04/07 10:26:40;;;;;;;3.20;0.70;;;26.30;56.90;;;;;;2315022;54;20970;-70
2024/04/07 10:29:09;;;;;;;2.65;0.70;;;26.40;56.50;;;;;;2329534;53;20968;-70
2024/04/07 10:31:39;;;;;;;3.90;1.15;;;26.40;55.70;;;;;;2341475;53;20996;-70
2024/04/07 10:34:13;;;;;;;4.93;0.90;;;26.50;56.20;;;;;;2340789;53;20957;-70
2024/04/07 10:36:49;;;;;;;2.33;0.70;;;26.50;55.90;;;;;;2342549;53;21693;-69
2024/04/07 10:39:16;;;;;;;2.97;1.00;;;26.50;55.60;;;;;;2343570;53;21805;-70
2024/04/07 10:41:44;;;;;;;3.75;1.15;;;26.60;55.30;;;;;;2339427;53;20996;-68
2024/04/07 10:44:11;;;;;;;5.53;1.08;;;26.60;55.00;;;;;;2341820;53;20985;-70
2024/04/07 10:46:37;;;;;;;3.70;1.10;;;26.70;54.80;;;;;;2315549;53;20953;-69
2024/04/07 10:49:04;;;;;;;2.67;0.90;;;26.70;54.60;;;;;;2340397;53;21483;-71
2024/04/07 10:51:34;;;;;;;3.62;1.02;;;26.70;54.70;;;;;;2340238;53;21271;-71
2024/04/07 10:54:04;;;;;;;2.25;0.75;;;26.70;54.40;;;;;;2343612;53;20941;-71
2024/04/07 10:56:31;;;;;;;2.78;0.80;;;26.70;54.20;;;;;;2313875;54;20901;-69
2024/04/07 10:58:57;;;;;;;5.00;0.60;;;26.70;54.10;;;;;;2339911;53;20989;-68
2024/04/07 11:01:24;;;;;;;3.25;0.75;;;26.70;54.00;;;;;;2340650;53;20957;-71
2024/04/07 11:03:57;;;;;;;3.35;0.82;;;26.70;54.00;;;;;;2341018;53;21439;-70
2024/04/07 11:06:24;;;;;;;3.00;0.85;;;26.70;53.90;;;;;;2339956;53;21041;-69
2024/04/07 11:08:51;;;;;;;2.75;0.80;;;26.80;54.10;;;;;;2339798;53;20923;-69
2024/04/07 11:11:22;;;;;;;2.35;0.70;;;26.80;54.00;;;;;;2318202;53;21093;-71
2024/04/07 11:13:49;;;;;;;2.10;0.60;;;26.80;53.50;;;;;;2340494;53;21004;-70
2024/04/07 11:16:15;;;;;;;3.72;1.10;;;26.80;53.50;;;;;;2342396;53;20949;-72
2024/04/07 11:18:45;;;;;;;3.42;0.85;;;26.80;53.40;;;;;;2340350;53;20933;-71
2024/04/07 11:21:12;;;;;;;3.55;0.70;;;26.80;52.80;;;;;;2308516;54;21023;-70
2024/04/07 11:23:38;;;;;;;2.60;0.75;;;26.80;53.40;;;;;;2308169;54;20962;-71
2024/04/07 11:26:08;;;;;;;3.25;0.88;;;26.90;53.60;;;;;;2308155;54;21519;-70
2024/04/07 11:28:39;;;;;;;3.35;1.05;;;26.90;53.60;;;;;;2308963;54;21008;-71
2024/04/07 11:31:08;;;;;;;3.25;0.90;;;27.00;53.20;;;;;;2319841;54;20932;-71
2024/04/07 11:33:35;;;;;;;2.08;0.70;;;27.00;53.30;;;;;;2311599;54;20975;-70
2024/04/07 11:36:04;;;;;;;2.53;0.70;;;27.00;53.40;;;;;;2308293;54;20940;-69
2024/04/07 11:38:31;;;;;;;2.47;0.90;;;27.10;53.40;;;;;;2321343;54;21000;-68
2024/04/07 11:40:57;;;;;;;4.03;0.60;;;27.20;53.40;;;;;;2309527;54;20939;-68
2024/04/07 11:43:23;;;;;;;2.20;0.80;;;27.20;53.40;;;;;;2308876;54;21015;-70
2024/04/07 11:45:50;;;;;;;3.70;0.90;;;27.20;53.40;;;;;;2308725;54;20959;-70
2024/04/07 11:48:16;;;;;;;2.45;0.60;;;27.30;53.40;;;;;;2308937;53;20995;-70
2024/04/07 11:50:42;;;;;;;3.37;0.68;;;27.40;53.40;;;;;;2308399;54;21788;-70
2024/04/07 11:53:11;;;;;;;3.15;0.90;;;27.40;53.40;;;;;;2308440;54;21326;-70
2024/04/07 11:55:37;;;;;;;2.97;0.88;;;27.40;53.30;;;;;;2323966;54;20995;-72
2024/04/07 11:58:07;;;;;;;4.68;1.10;;;27.50;53.20;;;;;;2309702;54;21011;-71
2024/04/07 12:00:33;;;;;;;3.08;1.00;;;27.50;53.20;;;;;;2308712;54;20928;-70
2024/04/07 12:03:00;;;;;;;2.95;0.93;;;27.60;52.90;;;;;;2308303;53;20924;-69
2024/04/07 12:05:26;;;;;;;3.53;0.73;;;27.60;52.90;;;;;;2308449;54;21295;-70
2024/04/07 12:07:56;;;;;;;3.17;1.00;;;27.70;52.80;;;;;;2308297;54;20960;-69
2024/04/07 12:10:23;;;;;;;5.07;0.95;;;27.70;52.50;;;;;;2308830;54;21015;-71
2024/04/07 12:12:49;;;;;;;2.70;0.80;;;27.70;52.80;;;;;;2308411;54;20943;-69
2024/04/07 12:15:15;;;;;;;3.47;0.70;;;27.80;52.80;;;;;;2309057;54;21338;-70
2024/04/07 12:17:45;;;;;;;1.62;0.60;;;27.80;52.80;;;;;;2308435;54;20928;-70
2024/04/07 12:20:11;;;;;;;2.30;0.80;;;27.80;52.70;;;;;;2324244;54;21253;-71
2024/04/07 12:22:38;;;;;;;2.90;1.12;;;27.80;52.70;;;;;;2327176;54;20947;-71
2024/04/07 12:25:04;;;;;;;3.22;0.98;;;27.80;52.70;;;;;;2334115;54;21620;-72
2024/04/07 12:27:30;;;;;;;2.20;0.85;;;27.80;52.50;;;;;;2335282;54;20909;-71
2024/04/07 12:29:57;;;;;;;4.43;0.80;;;27.90;52.50;;;;;;2334956;54;20965;-70
2024/04/07 12:32:27;;;;;;;4.70;1.00;;;27.90;52.30;;;;;;2335301;54;20909;-70
2024/04/07 12:34:55;;;;;;;2.58;0.70;;;27.90;52.10;;;;;;2334990;54;21072;-70
2024/04/07 12:37:21;;;;;;;4.28;0.90;;;27.90;52.20;;;;;;2335133;54;21021;-69
2024/04/07 12:39:48;;;;;;;4.80;0.85;;;27.90;52.20;;;;;;2333957;53;20957;-72
2024/04/07 12:42:15;;;;;;;2.50;0.50;;;27.90;52.50;;;;;;2335284;54;20941;-69
2024/04/07 12:44:41;;;;;;;2.75;0.90;;;27.90;52.60;;;;;;2335151;54;21474;-71
2024/04/07 12:47:07;;;;;;;2.37;0.80;;;27.90;52.60;;;;;;2335073;54;20953;-70
2024/04/07 12:49:34;;;;;;;3.30;0.80;;;28.00;52.70;;;;;;2335628;54;20977;-69
2024/04/07 12:52:03;;;;;;;2.80;0.70;;;28.00;52.80;;;;;;2335129;54;20925;-69
2024/04/07 12:54:30;;;;;;;2.05;0.70;;;28.00;53.00;;;;;;2335586;53;20933;-69